Time;durP1;ratioP1;P1;durP2;ratioP2;P2;SDS_P1;SDS_P2;PMS_P1;PMS_P2;Temp;Humidity;BMP_temperature;BMP_pressure;BME280_temperature;BME280_humidity;BME280_pressure;Samples;Min_cycle;Max_cycle;Signal;HPM_P1;HPM_P2
2022/04/19 00:00:18;;;;;;;70.45;27.20;;;;;;;;;;6262261;28;20049;-58
2022/04/19 00:03:37;;;;;;;74.60;27.48;;;;;;;;;;6265250;28;20134;-61
2022/04/19 00:06:38;;;;;;;87.37;28.73;;;;;;;;;;6262393;28;20073;-60
2022/04/19 00:09:38;;;;;;;78.85;28.40;;;;;;;;;;6263529;28;20761;-60
2022/04/19 00:12:39;;;;;;;81.95;26.60;;;;;;;;;;6264017;28;20070;-60
2022/04/19 00:15:40;;;;;;;70.43;25.98;;;;;;;;;;6262590;28;20059;-60
2022/04/19 00:18:41;;;;;;;80.82;26.90;;;;;;;;;;6261583;28;20179;-60
2022/04/19 00:21:41;;;;;;;74.03;27.80;;;;;;;;;;6261803;28;20095;-60
2022/04/19 00:24:42;;;;;;;62.55;22.83;;;;;;;;;;6262573;28;20053;-60
2022/04/19 00:27:43;;;;;;;59.75;21.02;;;;;;;;;;6260819;28;20563;-59
2022/04/19 00:30:44;;;;;;;72.00;25.35;;;;;;;;;;6265282;28;20049;-60
2022/04/19 00:33:44;;;;;;;76.75;27.15;;;;;;;;;;6264169;28;20565;-60
2022/04/19 00:36:45;;;;;;;87.07;30.88;;;;;;;;;;6264715;28;20049;-61
2022/04/19 00:39:45;;;;;;;77.05;27.40;;;;;;;;;;6265260;28;20495;-60
2022/04/19 00:42:47;;;;;;;70.03;25.58;;;;;;;;;;6266053;28;20073;-59
2022/04/19 00:45:47;;;;;;;71.88;25.42;;;;;;;;;;6264747;28;20107;-61
2022/04/19 00:48:48;;;;;;;68.78;25.67;;;;;;;;;;6264565;28;20045;-60
2022/04/19 00:51:49;;;;;;;83.63;30.55;;;;;;;;;;6266494;28;20068;-60
2022/04/19 00:54:50;;;;;;;82.53;29.17;;;;;;;;;;6265949;28;20086;-60
2022/04/19 00:57:51;;;;;;;86.78;30.15;;;;;;;;;;6264410;28;20045;-60
2022/04/19 01:00:52;;;;;;;90.55;30.80;;;;;;;;;;6268022;28;20057;-61
2022/04/19 01:03:52;;;;;;;87.97;31.58;;;;;;;;;;6268512;28;20091;-61
2022/04/19 01:06:53;;;;;;;84.38;30.10;;;;;;;;;;6266582;28;20059;-61
2022/04/19 01:09:53;;;;;;;82.38;28.58;;;;;;;;;;6266913;28;20827;-59
2022/04/19 01:16:14;;;;;;;98.20;32.15;;;;;;;;;;6266083;28;20053;-61
2022/04/19 01:19:15;;;;;;;87.53;29.33;;;;;;;;;;6265180;28;20060;-60
2022/04/19 01:22:16;;;;;;;92.88;32.10;;;;;;;;;;6265372;28;20048;-59
2022/04/19 01:25:20;;;;;;;124.93;42.22;;;;;;;;;;6263811;28;20041;-60
2022/04/19 01:28:21;;;;;;;128.27;43.20;;;;;;;;;;6264905;28;20048;-61
2022/04/19 01:31:21;;;;;;;125.80;41.67;;;;;;;;;;6264052;28;20045;-58
2022/04/19 01:34:22;;;;;;;124.93;43.30;;;;;;;;;;6266106;28;20468;-59
2022/04/19 01:37:23;;;;;;;147.60;47.55;;;;;;;;;;6265915;28;20131;-60
2022/04/19 01:40:23;;;;;;;164.25;53.90;;;;;;;;;;6264927;28;20080;-60
2022/04/19 01:43:24;;;;;;;171.18;55.70;;;;;;;;;;6266241;28;20052;-60
2022/04/19 01:46:26;;;;;;;161.05;53.35;;;;;;;;;;6264104;28;20191;-60
2022/04/19 01:49:27;;;;;;;164.55;53.80;;;;;;;;;;6263993;28;20053;-60
2022/04/19 01:52:27;;;;;;;140.30;47.28;;;;;;;;;;6264822;28;20140;-60
2022/04/19 01:55:28;;;;;;;133.68;45.25;;;;;;;;;;6265569;28;20074;-60
2022/04/19 01:58:29;;;;;;;140.02;47.65;;;;;;;;;;6263569;28;20055;-60
2022/04/19 02:01:30;;;;;;;140.00;48.00;;;;;;;;;;6267552;28;20141;-60
2022/04/19 02:04:30;;;;;;;125.18;44.58;;;;;;;;;;6265950;28;20111;-59
2022/04/19 02:07:32;;;;;;;130.32;45.90;;;;;;;;;;6263342;28;20071;-61
2022/04/19 02:10:32;;;;;;;116.22;42.30;;;;;;;;;;6264245;28;20057;-60
2022/04/19 02:13:33;;;;;;;134.80;45.65;;;;;;;;;;6264706;28;20154;-59
2022/04/19 02:16:33;;;;;;;129.00;43.40;;;;;;;;;;6264141;28;20464;-60
2022/04/19 02:19:37;;;;;;;131.70;45.85;;;;;;;;;;6256753;28;20041;-58
2022/04/19 02:22:39;;;;;;;136.82;45.65;;;;;;;;;;6265327;28;20049;-60
2022/04/19 02:25:40;;;;;;;134.70;46.55;;;;;;;;;;6263392;28;20068;-59
2022/04/19 02:28:41;;;;;;;129.70;45.17;;;;;;;;;;6264234;28;20060;-61
2022/04/19 02:31:42;;;;;;;134.65;44.40;;;;;;;;;;6264852;28;20080;-58
2022/04/19 02:34:42;;;;;;;111.75;40.60;;;;;;;;;;6263628;28;20443;-59
2022/04/19 02:37:48;;;;;;;113.78;37.58;;;;;;;;;;6262424;28;20132;-59
2022/04/19 02:40:48;;;;;;;106.72;36.75;;;;;;;;;;6263473;28;20057;-60
2022/04/19 02:43:49;;;;;;;97.55;36.38;;;;;;;;;;6263477;28;20048;-60
2022/04/19 02:46:50;;;;;;;89.70;33.63;;;;;;;;;;6261616;28;20081;-61
2022/04/19 02:49:50;;;;;;;95.05;34.83;;;;;;;;;;6261494;28;20059;-60
2022/04/19 02:52:51;;;;;;;93.78;34.58;;;;;;;;;;6265229;28;20067;-60
2022/04/19 02:55:52;;;;;;;93.63;35.00;;;;;;;;;;6259740;28;20053;-60
2022/04/19 02:58:52;;;;;;;105.57;37.03;;;;;;;;;;6261415;28;20515;-55
2022/04/19 03:01:53;;;;;;;95.28;35.38;;;;;;;;;;6265239;28;20053;-56
2022/04/19 03:04:53;;;;;;;105.97;37.38;;;;;;;;;;6263941;28;20156;-57
2022/04/19 03:07:54;;;;;;;112.88;37.67;;;;;;;;;;6263027;28;20052;-60
2022/04/19 03:10:55;;;;;;;109.18;36.90;;;;;;;;;;6264274;28;20178;-61
2022/04/19 03:13:56;;;;;;;102.07;36.85;;;;;;;;;;6263563;28;20044;-61
2022/04/19 03:16:56;;;;;;;108.90;38.65;;;;;;;;;;6264451;28;20102;-61
2022/04/19 03:19:57;;;;;;;103.90;36.63;;;;;;;;;;6262160;28;20049;-59
2022/04/19 03:29:35;;;;;;;118.43;41.20;;;;;;;;;;6262735;28;20048;-61
2022/04/19 03:32:36;;;;;;;104.05;39.25;;;;;;;;;;6264588;28;20061;-60
2022/04/19 03:35:37;;;;;;;113.95;38.83;;;;;;;;;;6263581;28;20160;-60
2022/04/19 03:38:38;;;;;;;112.95;38.03;;;;;;;;;;6262906;28;20456;-61
2022/04/19 03:41:40;;;;;;;110.93;40.17;;;;;;;;;;6261601;28;20045;-60
2022/04/19 03:44:40;;;;;;;108.57;39.83;;;;;;;;;;6261456;28;20041;-60
2022/04/19 03:47:41;;;;;;;110.68;37.60;;;;;;;;;;6260124;28;20496;-61
2022/04/19 03:50:42;;;;;;;109.15;36.45;;;;;;;;;;6263425;28;20041;-61
2022/04/19 03:53:42;;;;;;;95.57;35.15;;;;;;;;;;6261262;28;20064;-60
2022/04/19 03:56:43;;;;;;;97.60;35.35;;;;;;;;;;6262206;28;20052;-61
2022/04/19 03:59:44;;;;;;;98.70;36.53;;;;;;;;;;6258439;28;20076;-61
2022/04/19 04:02:45;;;;;;;105.72;35.78;;;;;;;;;;6260892;28;20099;-62
2022/04/19 04:05:45;;;;;;;102.20;36.60;;;;;;;;;;6262374;28;20136;-61
2022/04/19 04:08:46;;;;;;;106.30;36.35;;;;;;;;;;6260145;28;20083;-62
2022/04/19 04:11:46;;;;;;;110.88;38.60;;;;;;;;;;6265839;28;20178;-61
2022/04/19 04:14:47;;;;;;;101.78;37.28;;;;;;;;;;6248137;28;20144;-62
2022/04/19 04:17:48;;;;;;;106.78;37.45;;;;;;;;;;6267013;28;20102;-62
2022/04/19 04:20:48;;;;;;;111.75;41.00;;;;;;;;;;6267535;28;20136;-62
2022/04/19 04:23:49;;;;;;;107.57;38.20;;;;;;;;;;6260542;28;20099;-62
2022/04/19 04:26:50;;;;;;;110.93;38.33;;;;;;;;;;6266179;28;20049;-62
2022/04/19 04:29:50;;;;;;;123.85;41.05;;;;;;;;;;6266119;28;20055;-61
2022/04/19 04:32:52;;;;;;;129.38;43.63;;;;;;;;;;6267601;28;20080;-61
2022/04/19 04:35:52;;;;;;;117.88;42.15;;;;;;;;;;6269264;28;20057;-61
2022/04/19 04:38:53;;;;;;;110.55;42.17;;;;;;;;;;6268668;28;20047;-60
2022/04/19 04:41:54;;;;;;;120.47;42.80;;;;;;;;;;6270078;28;20116;-61
2022/04/19 04:44:54;;;;;;;122.40;42.33;;;;;;;;;;6262054;28;20066;-62
2022/04/19 04:51:14;;;;;;;115.65;39.00;;;;;;;;;;6267822;28;20044;-61
2022/04/19 04:54:14;;;;;;;118.60;39.05;;;;;;;;;;6269809;28;20511;-59
2022/04/19 04:57:15;;;;;;;101.35;38.17;;;;;;;;;;6268661;28;20408;-59
2022/04/19 05:00:16;;;;;;;103.38;35.13;;;;;;;;;;6264422;28;20083;-60
2022/04/19 05:03:17;;;;;;;94.40;33.50;;;;;;;;;;6269008;28;20980;-59
2022/04/19 05:06:17;;;;;;;88.22;32.65;;;;;;;;;;6268703;28;20048;-61
2022/04/19 05:09:18;;;;;;;98.93;32.67;;;;;;;;;;6265092;28;20076;-61
2022/04/19 05:12:19;;;;;;;95.65;33.03;;;;;;;;;;6267672;28;20159;-61
2022/04/19 05:15:19;;;;;;;87.93;31.05;;;;;;;;;;6268712;28;20057;-61
2022/04/19 05:18:20;;;;;;;72.03;27.40;;;;;;;;;;6264974;28;20140;-62
2022/04/19 05:21:21;;;;;;;78.47;29.35;;;;;;;;;;6262880;28;20105;-62
2022/04/19 05:24:22;;;;;;;64.72;26.75;;;;;;;;;;6264190;28;20048;-61
2022/04/19 05:27:22;;;;;;;61.50;26.30;;;;;;;;;;6266505;28;20400;-61
2022/04/19 05:30:23;;;;;;;63.00;26.42;;;;;;;;;;6256274;28;20541;-61
2022/04/19 05:33:24;;;;;;;66.03;27.02;;;;;;;;;;6266456;28;20466;-61
2022/04/19 05:36:24;;;;;;;86.45;36.80;;;;;;;;;;6265883;28;20137;-61
2022/04/19 05:39:25;;;;;;;65.75;27.08;;;;;;;;;;6262782;28;20869;-59
2022/04/19 05:42:25;;;;;;;59.03;26.02;;;;;;;;;;6264903;28;20053;-61
2022/04/19 05:45:27;;;;;;;72.30;28.13;;;;;;;;;;6265315;28;20043;-62
2022/04/19 05:48:28;;;;;;;66.63;27.60;;;;;;;;;;6263406;28;20048;-62
2022/04/19 05:51:29;;;;;;;70.97;26.83;;;;;;;;;;6264332;28;20037;-61
2022/04/19 05:54:29;;;;;;;73.45;27.20;;;;;;;;;;6263145;28;20217;-62
2022/04/19 05:57:30;;;;;;;66.82;27.30;;;;;;;;;;6266484;28;20059;-61
2022/04/19 06:00:31;;;;;;;61.90;26.42;;;;;;;;;;6256325;28;20044;-61
2022/04/19 06:06:51;;;;;;;70.35;26.73;;;;;;;;;;6266747;28;20114;-62
2022/04/19 06:09:51;;;;;;;74.15;28.77;;;;;;;;;;6267014;28;20404;-61
2022/04/19 06:12:52;;;;;;;74.68;29.48;;;;;;;;;;6266174;28;20045;-58
2022/04/19 06:15:53;;;;;;;79.18;29.55;;;;;;;;;;6263171;28;20052;-61
2022/04/19 06:18:53;;;;;;;90.07;34.00;;;;;;;;;;6261389;28;20052;-62
2022/04/19 06:21:55;;;;;;;67.07;24.85;;;;;;;;;;6264553;28;20045;-62
2022/04/19 06:24:55;;;;;;;52.00;20.17;;;;;;;;;;6267906;28;20385;-60
2022/04/19 06:27:57;;;;;;;47.20;18.58;;;;;;;;;;6262308;28;20098;-60
2022/04/19 06:30:57;;;;;;;42.30;17.80;;;;;;;;;;6262729;28;20053;-61
2022/04/19 06:33:58;;;;;;;50.13;17.88;;;;;;;;;;6263810;28;20063;-62
2022/04/19 06:36:59;;;;;;;40.33;17.15;;;;;;;;;;6265111;28;20575;-61
2022/04/19 06:40:01;;;;;;;37.53;15.15;;;;;;;;;;6264433;28;20140;-61
2022/04/19 06:43:02;;;;;;;43.27;15.53;;;;;;;;;;6264788;28;20239;-61
2022/04/19 06:46:03;;;;;;;51.57;19.10;;;;;;;;;;6261804;28;20297;-61
2022/04/19 06:49:07;;;;;;;48.90;20.73;;;;;;;;;;6266084;28;20660;-61
2022/04/19 06:52:08;;;;;;;48.10;20.33;;;;;;;;;;6264064;28;20095;-59
2022/04/19 06:55:08;;;;;;;50.38;20.67;;;;;;;;;;6264965;28;20152;-61
2022/04/19 06:58:09;;;;;;;56.60;21.30;;;;;;;;;;6262875;28;20060;-61
2022/04/19 07:01:11;;;;;;;51.88;21.25;;;;;;;;;;6263191;28;20730;-61
2022/04/19 07:04:11;;;;;;;50.25;19.08;;;;;;;;;;6265658;28;20067;-60
2022/04/19 07:07:12;;;;;;;56.55;21.52;;;;;;;;;;6264858;28;20080;-61
2022/04/19 07:10:12;;;;;;;53.40;20.92;;;;;;;;;;6262379;28;20083;-60
2022/04/19 07:13:13;;;;;;;51.75;20.75;;;;;;;;;;6263206;28;20090;-61
2022/04/19 07:16:14;;;;;;;54.97;20.45;;;;;;;;;;6265214;28;20269;-61
2022/04/19 07:19:15;;;;;;;51.03;19.50;;;;;;;;;;6264839;28;20096;-60
2022/04/19 07:28:54;;;;;;;40.00;18.95;;;;;;;;;;6265585;28;20041;-61
2022/04/19 07:31:56;;;;;;;39.75;17.63;;;;;;;;;;6264018;28;20080;-59
2022/04/19 07:34:58;;;;;;;37.85;16.35;;;;;;;;;;6263021;28;20119;-62
2022/04/19 07:37:58;;;;;;;33.73;15.33;;;;;;;;;;6265114;28;20100;-61
2022/04/19 07:40:59;;;;;;;35.55;15.98;;;;;;;;;;6261469;28;20113;-64
2022/04/19 07:44:01;;;;;;;28.35;11.30;;;;;;;;;;6266162;28;20389;-60
2022/04/19 07:47:02;;;;;;;;;;;;;;;;;;6269475;28;20049;-61
2022/04/19 07:50:03;;;;;;;28.58;11.82;;;;;;;;;;6269734;28;20346;-60
2022/04/19 07:53:04;;;;;;;27.13;11.57;;;;;;;;;;6268527;28;20467;-61
2022/04/19 07:56:05;;;;;;;24.00;10.27;;;;;;;;;;6269604;28;20088;-60
2022/04/19 07:59:05;;;;;;;26.70;10.73;;;;;;;;;;6268211;28;20069;-60
2022/04/19 08:02:06;;;;;;;28.40;10.95;;;;;;;;;;6266661;28;20446;-60
2022/04/19 08:05:07;;;;;;;25.20;11.38;;;;;;;;;;6267059;28;20049;-60
2022/04/19 08:08:08;;;;;;;25.17;11.48;;;;;;;;;;6264981;28;20091;-60
2022/04/19 08:11:09;;;;;;;24.55;11.18;;;;;;;;;;6267858;28;20045;-61
2022/04/19 08:14:09;;;;;;;28.33;11.82;;;;;;;;;;6267831;28;20068;-61
2022/04/19 08:17:11;;;;;;;32.30;16.73;;;;;;;;;;6268287;28;20053;-61
2022/04/19 08:20:13;;;;;;;30.98;13.55;;;;;;;;;;6268574;28;20500;-60
2022/04/19 08:23:14;;;;;;;28.98;12.27;;;;;;;;;;6266403;28;20071;-61
2022/04/19 08:26:15;;;;;;;30.27;12.57;;;;;;;;;;6265099;28;20041;-61
2022/04/19 08:29:16;;;;;;;28.85;12.65;;;;;;;;;;6268518;28;20060;-59
2022/04/19 08:32:16;;;;;;;30.08;12.80;;;;;;;;;;6265527;28;20576;-61
2022/04/19 08:35:18;;;;;;;24.98;11.95;;;;;;;;;;6268240;28;20041;-61
2022/04/19 08:38:18;;;;;;;33.22;12.95;;;;;;;;;;6268291;28;20053;-60
2022/04/19 08:41:21;;;;;;;30.02;13.75;;;;;;;;;;6267403;28;20090;-60
2022/04/19 08:44:22;;;;;;;37.83;16.25;;;;;;;;;;6266219;28;20052;-60
2022/04/19 08:47:24;;;;;;;29.13;15.13;;;;;;;;;;6266381;28;20051;-61
2022/04/19 08:50:25;;;;;;;28.38;15.13;;;;;;;;;;6265843;28;20049;-62
2022/04/19 09:00:06;;;;;;;35.63;18.83;;;;;;;;;;6266644;28;20068;-61
2022/04/19 09:03:07;;;;;;;34.00;15.48;;;;;;;;;;6264450;28;20041;-60
2022/04/19 09:06:08;;;;;;;31.33;14.98;;;;;;;;;;6264100;28;20045;-60
2022/04/19 09:09:10;;;;;;;28.38;14.32;;;;;;;;;;6265429;28;20049;-61
2022/04/19 09:12:12;;;;;;;29.77;14.75;;;;;;;;;;6268357;28;20490;-61
2022/04/19 09:15:13;;;;;;;32.15;14.20;;;;;;;;;;6264021;28;20396;-61
2022/04/19 09:18:30;;;;;;;36.35;16.40;;;;;;;;;;6261950;28;20408;-60
2022/04/19 09:21:38;;;;;;;38.35;17.23;;;;;;;;;;6264362;28;20037;-60
2022/04/19 09:24:39;;;;;;;29.55;15.90;;;;;;;;;;6264205;28;20705;-61
2022/04/19 09:27:39;;;;;;;28.38;14.52;;;;;;;;;;6266214;28;20049;-64
2022/04/19 09:30:40;;;;;;;33.42;14.88;;;;;;;;;;6268122;28;20041;-64
2022/04/19 09:33:41;;;;;;;33.35;14.50;;;;;;;;;;6269502;28;20570;-62
2022/04/19 09:36:41;;;;;;;29.17;13.68;;;;;;;;;;6266117;28;20516;-61
2022/04/19 09:39:44;;;;;;;30.05;14.00;;;;;;;;;;6266832;28;20484;-61
2022/04/19 09:42:44;;;;;;;35.08;16.10;;;;;;;;;;6267882;28;20049;-61
2022/04/19 09:45:54;;;;;;;32.40;14.10;;;;;;;;;;6265600;28;20128;-60
2022/04/19 09:48:54;;;;;;;24.88;13.40;;;;;;;;;;6264582;28;20060;-62
2022/04/19 09:51:55;;;;;;;23.08;12.30;;;;;;;;;;6264353;28;20076;-62
2022/04/19 09:55:10;;;;;;;24.55;14.20;;;;;;;;;;6260849;28;20499;-64
2022/04/19 09:58:12;;;;;;;34.22;16.27;;;;;;;;;;6262049;28;20045;-63
2022/04/19 10:08:10;;;;;;;39.45;19.95;;;;;;;;;;6262067;28;20041;-64
2022/04/19 10:11:12;;;;;;;37.28;19.60;;;;;;;;;;6260329;28;20519;-64
2022/04/19 10:14:14;;;;;;;35.75;19.48;;;;;;;;;;6262270;28;20091;-64
2022/04/19 10:17:15;;;;;;;42.25;19.88;;;;;;;;;;6262720;28;20051;-61
2022/04/19 10:20:16;;;;;;;39.08;20.23;;;;;;;;;;6262597;28;20045;-61
2022/04/19 10:23:17;;;;;;;40.38;19.50;;;;;;;;;;6265503;28;20398;-63
2022/04/19 10:26:19;;;;;;;37.47;19.48;;;;;;;;;;6264360;28;20049;-62
2022/04/19 10:29:26;;;;;;;40.13;18.55;;;;;;;;;;6262062;28;20048;-64
2022/04/19 10:32:33;;;;;;;37.15;19.13;;;;;;;;;;6264724;28;20205;-62
2022/04/19 10:36:12;;;;;;;39.35;19.80;;;;;;;;;;6265131;28;20415;-60
2022/04/19 10:39:16;;;;;;;35.33;19.33;;;;;;;;;;6260564;28;20087;-61
2022/04/19 10:42:33;;;;;;;36.17;19.63;;;;;;;;;;6260856;28;20040;-64
2022/04/19 10:45:36;;;;;;;34.58;17.75;;;;;;;;;;6263993;28;20041;-62
2022/04/19 10:48:37;;;;;;;33.47;17.35;;;;;;;;;;6265808;28;20055;-64
2022/04/19 10:51:38;;;;;;;34.05;17.25;;;;;;;;;;6263232;28;20123;-60
2022/04/19 10:55:03;;;;;;;31.85;17.05;;;;;;;;;;6263195;28;20055;-61
2022/04/19 10:58:17;;;;;;;30.77;16.88;;;;;;;;;;6262252;28;20045;-62
2022/04/19 11:01:31;;;;;;;30.70;17.10;;;;;;;;;;6259896;28;20041;-63
2022/04/19 11:04:35;;;;;;;32.20;18.50;;;;;;;;;;6262217;28;20495;-61
2022/04/19 11:07:42;;;;;;;34.22;18.15;;;;;;;;;;6265032;28;20049;-61
2022/04/19 11:10:43;;;;;;;34.58;19.08;;;;;;;;;;6262687;28;20490;-62
2022/04/19 11:13:43;;;;;;;37.75;19.75;;;;;;;;;;6263038;28;20045;-62
2022/04/19 11:16:45;;;;;;;38.78;20.75;;;;;;;;;;6260274;28;20056;-62
2022/04/19 11:19:53;;;;;;;40.00;20.40;;;;;;;;;;6261369;28;20061;-62
2022/04/19 11:22:58;;;;;;;57.38;25.63;;;;;;;;;;6258901;28;20130;-63
2022/04/19 11:26:01;;;;;;;37.22;19.58;;;;;;;;;;6261981;28;20055;-63
2022/04/19 11:29:08;;;;;;;48.80;22.00;;;;;;;;;;6261445;28;20480;-62
2022/04/19 11:32:09;;;;;;;44.58;21.45;;;;;;;;;;6260961;28;20149;-63
2022/04/19 11:35:15;;;;;;;43.50;21.27;;;;;;;;;;6260794;28;20045;-61
2022/04/19 11:38:16;;;;;;;46.70;24.58;;;;;;;;;;6260975;28;20053;-62
2022/04/19 11:48:10;;;;;;;45.80;22.45;;;;;;;;;;6246676;28;20385;-63
2022/04/19 11:51:12;;;;;;;47.90;23.35;;;;;;;;;;6262530;28;20048;-63
2022/04/19 11:54:26;;;;;;;;;;;;;;;;;;6262565;28;20148;-64
2022/04/19 11:57:26;;;;;;;65.20;27.95;;;;;;;;;;6260387;28;19924;-64
2022/04/19 12:00:27;;;;;;;51.90;23.50;;;;;;;;;;6246804;28;20060;-63
2022/04/19 12:03:29;;;;;;;43.63;21.38;;;;;;;;;;6254088;28;20072;-63
2022/04/19 12:06:30;;;;;;;39.35;20.27;;;;;;;;;;6254435;28;20052;-61
2022/04/19 12:09:32;;;;;;;41.08;19.88;;;;;;;;;;6252319;28;20115;-62
2022/04/19 12:12:33;;;;;;;37.55;19.98;;;;;;;;;;6252523;28;20099;-62
2022/04/19 12:15:41;;;;;;;50.70;26.92;;;;;;;;;;6253355;28;20581;-63
2022/04/19 12:18:42;;;;;;;69.03;35.53;;;;;;;;;;6251809;28;20056;-61
2022/04/19 12:21:45;;;;;;;57.17;27.67;;;;;;;;;;6251827;28;20151;-63
2022/04/19 12:24:48;;;;;;;91.82;45.42;;;;;;;;;;6251096;28;20199;-64
2022/04/19 12:27:54;;;;;;;56.13;28.77;;;;;;;;;;6252343;28;20064;-62
2022/04/19 12:30:54;;;;;;;80.88;38.60;;;;;;;;;;6254141;28;20069;-64
2022/04/19 12:33:55;;;;;;;227.30;110.40;;;;;;;;;;6258222;28;20613;-64
2022/04/19 12:37:08;;;;;;;148.43;73.55;;;;;;;;;;6260478;28;20447;-64
2022/04/19 12:40:09;;;;;;;;;;;;;;;;;;6253880;28;20118;-61
2022/04/19 12:43:10;;;;;;;72.68;38.53;;;;;;;;;;6256687;28;21159;-64
2022/04/19 12:46:14;;;;;;;92.63;59.53;;;;;;;;;;6256781;28;20115;-63
2022/04/19 12:49:21;;;;;;;86.13;52.72;;;;;;;;;;6256018;28;20095;-62
2022/04/19 12:52:32;;;;;;;80.38;51.05;;;;;;;;;;6254665;28;20155;-65
2022/04/19 12:59:32;;;;;;;38.83;22.67;;;;;;;;;;6254744;28;20353;-64
2022/04/19 13:02:33;;;;;;;39.03;24.08;;;;;;;;;;6259798;28;20491;-61
2022/04/19 13:12:17;;;;;;;39.30;22.27;;;;;;;;;;6255654;28;20132;-65
2022/04/19 13:15:18;;;;;;;38.20;20.35;;;;;;;;;;6256786;28;20110;-65
2022/04/19 13:18:19;;;;;;;37.55;20.52;;;;;;;;;;6253522;28;20053;-63
2022/04/19 13:21:20;;;;;;;49.75;30.70;;;;;;;;;;6253862;28;20065;-64
2022/04/19 13:24:21;;;;;;;29.50;18.27;;;;;;;;;;6256884;28;20119;-64
2022/04/19 13:27:22;;;;;;;31.80;18.20;;;;;;;;;;6257352;28;20056;-65
2022/04/19 13:30:22;;;;;;;30.05;18.02;;;;;;;;;;6252949;28;20359;-63
2022/04/19 13:33:23;;;;;;;32.58;18.55;;;;;;;;;;6255187;28;20144;-61
2022/04/19 13:36:24;;;;;;;33.55;18.90;;;;;;;;;;6255726;28;20052;-64
2022/04/19 13:39:26;;;;;;;31.45;18.20;;;;;;;;;;6252189;28;20079;-64
2022/04/19 13:42:27;;;;;;;;;;;;;;;;;;6253573;28;20048;-65
2022/04/19 13:45:28;;;;;;;37.05;21.63;;;;;;;;;;6253602;28;20564;-62
2022/04/19 13:48:29;;;;;;;29.25;16.35;;;;;;;;;;6253161;28;20589;-66
2022/04/19 13:51:30;;;;;;;34.83;19.75;;;;;;;;;;6252870;28;20048;-64
2022/04/19 13:54:31;;;;;;;29.35;18.65;;;;;;;;;;6253658;28;20051;-63
2022/04/19 13:57:32;;;;;;;31.23;17.65;;;;;;;;;;6254210;28;20582;-65
2022/04/19 14:00:32;;;;;;;30.02;17.13;;;;;;;;;;6253286;28;20462;-65
2022/04/19 14:03:34;;;;;;;29.63;18.13;;;;;;;;;;6256484;28;20045;-64
2022/04/19 14:06:39;;;;;;;37.67;18.63;;;;;;;;;;6254808;28;20045;-65
2022/04/19 14:09:39;;;;;;;45.17;22.75;;;;;;;;;;6251654;28;20057;-63
2022/04/19 14:12:41;;;;;;;27.65;16.65;;;;;;;;;;6256285;28;20844;-64
2022/04/19 14:15:43;;;;;;;39.33;21.37;;;;;;;;;;6254857;28;20053;-64
2022/04/19 14:18:44;;;;;;;42.95;22.77;;;;;;;;;;6252833;28;20045;-64
2022/04/19 14:21:45;;;;;;;27.80;17.47;;;;;;;;;;6252424;28;20460;-61
2022/04/19 14:24:46;;;;;;;37.00;17.80;;;;;;;;;;6253198;28;20547;-63
2022/04/19 14:27:48;;;;;;;30.42;17.55;;;;;;;;;;6254868;28;20057;-65
2022/04/19 14:34:08;;;;;;;27.90;17.15;;;;;;;;;;6254726;28;20144;-65
2022/04/19 14:37:09;;;;;;;27.17;16.10;;;;;;;;;;6253624;28;20052;-61
2022/04/19 14:40:10;;;;;;;27.92;16.58;;;;;;;;;;6251805;28;20044;-64
2022/04/19 14:43:12;;;;;;;26.35;15.82;;;;;;;;;;6254659;28;20423;-61
2022/04/19 14:46:13;;;;;;;25.52;15.35;;;;;;;;;;6254104;28;20079;-62
2022/04/19 14:49:14;;;;;;;23.97;14.20;;;;;;;;;;6254016;28;20045;-63
2022/04/19 14:52:14;;;;;;;27.38;14.45;;;;;;;;;;6254973;28;20087;-62
2022/04/19 14:55:15;;;;;;;26.13;15.45;;;;;;;;;;6256699;28;20036;-59
2022/04/19 14:58:16;;;;;;;24.73;14.75;;;;;;;;;;6254377;28;20068;-60
2022/04/19 15:01:17;;;;;;;26.42;14.43;;;;;;;;;;6250900;28;20389;-64
2022/04/19 15:04:18;;;;;;;25.65;14.88;;;;;;;;;;6254460;28;20056;-60
2022/04/19 15:07:18;;;;;;;26.25;14.65;;;;;;;;;;6253505;28;20141;-61
2022/04/19 15:10:19;;;;;;;33.38;17.20;;;;;;;;;;6247450;28;20045;-60
2022/04/19 15:13:20;;;;;;;25.38;14.20;;;;;;;;;;6255177;28;20049;-65
2022/04/19 15:16:20;;;;;;;24.05;14.00;;;;;;;;;;6253115;28;20064;-63
2022/04/19 15:19:21;;;;;;;19.40;11.98;;;;;;;;;;6247773;28;20128;-65
2022/04/19 15:22:22;;;;;;;21.20;11.82;;;;;;;;;;6251071;28;20049;-63
2022/04/19 15:25:23;;;;;;;24.42;13.13;;;;;;;;;;6252537;28;20053;-64
2022/04/19 15:28:23;;;;;;;23.92;12.98;;;;;;;;;;6250896;28;20053;-68
2022/04/19 15:31:24;;;;;;;22.98;12.25;;;;;;;;;;6251352;28;20049;-64
2022/04/19 15:34:26;;;;;;;25.15;12.70;;;;;;;;;;6252571;28;21023;-66
2022/04/19 15:37:27;;;;;;;22.87;12.17;;;;;;;;;;6253204;28;20044;-64
2022/04/19 15:40:28;;;;;;;26.55;13.10;;;;;;;;;;6249420;28;20318;-66
2022/04/19 15:43:28;;;;;;;25.23;14.30;;;;;;;;;;6254365;28;20056;-63
2022/04/19 15:46:29;;;;;;;23.80;12.85;;;;;;;;;;6253162;28;20467;-67
2022/04/19 15:49:29;;;;;;;32.45;13.85;;;;;;;;;;6249915;28;20060;-65
2022/04/19 15:52:30;;;;;;;25.35;12.93;;;;;;;;;;6251609;28;20049;-67
2022/04/19 15:55:31;;;;;;;21.92;12.18;;;;;;;;;;6252024;28;20639;-64
2022/04/19 15:58:31;;;;;;;21.48;12.07;;;;;;;;;;6248778;28;20052;-64
2022/04/19 16:01:32;;;;;;;20.35;11.35;;;;;;;;;;6253165;28;20126;-63
2022/04/19 16:04:33;;;;;;;21.52;12.23;;;;;;;;;;6256169;28;20063;-64
2022/04/19 16:07:33;;;;;;;22.38;12.82;;;;;;;;;;6258225;28;20053;-65
2022/04/19 16:10:34;;;;;;;28.55;15.05;;;;;;;;;;6252951;28;20048;-64
2022/04/19 16:13:35;;;;;;;31.42;15.98;;;;;;;;;;6256315;28;20047;-66
2022/04/19 16:23:24;;;;;;;30.60;16.92;;;;;;;;;;6257514;28;20120;-68
2022/04/19 16:26:24;;;;;;;29.85;14.85;;;;;;;;;;6259057;28;20087;-67
2022/04/19 16:29:25;;;;;;;26.45;14.10;;;;;;;;;;6258425;28;20774;-64
2022/04/19 16:32:26;;;;;;;29.58;16.17;;;;;;;;;;6256146;28;20067;-64
2022/04/19 16:35:26;;;;;;;18.08;10.45;;;;;;;;;;6258389;28;20140;-63
2022/04/19 16:38:27;;;;;;;19.92;11.05;;;;;;;;;;6255349;28;20049;-64
2022/04/19 16:41:29;;;;;;;16.38;9.65;;;;;;;;;;6255677;28;20044;-65
2022/04/19 16:44:29;;;;;;;21.63;11.17;;;;;;;;;;6255999;28;20505;-65
2022/04/19 16:47:30;;;;;;;26.45;11.50;;;;;;;;;;6256014;28;20045;-67
2022/04/19 16:50:31;;;;;;;21.13;11.23;;;;;;;;;;6254131;28;20048;-62
2022/04/19 16:53:35;;;;;;;17.27;10.05;;;;;;;;;;6251858;28;20059;-64
2022/04/19 16:56:36;;;;;;;18.20;10.00;;;;;;;;;;6254647;28;20040;-64
2022/04/19 16:59:39;;;;;;;20.90;9.77;;;;;;;;;;6254068;28;20592;-64
2022/04/19 17:02:39;;;;;;;20.52;10.23;;;;;;;;;;6254633;28;20049;-65
2022/04/19 17:05:41;;;;;;;20.35;10.50;;;;;;;;;;6256003;28;20135;-65
2022/04/19 17:08:42;;;;;;;25.60;12.88;;;;;;;;;;6254717;28;20147;-64
2022/04/19 17:11:44;;;;;;;26.10;14.60;;;;;;;;;;6253880;28;20055;-67
2022/04/19 17:14:46;;;;;;;32.87;14.87;;;;;;;;;;6252825;28;20057;-64
2022/04/19 17:17:47;;;;;;;32.95;14.98;;;;;;;;;;6253342;28;20056;-64
2022/04/19 17:20:47;;;;;;;26.70;13.32;;;;;;;;;;6252743;28;20053;-64
2022/04/19 17:23:48;;;;;;;25.55;12.18;;;;;;;;;;6253828;28;20056;-64
2022/04/19 17:26:49;;;;;;;24.52;11.68;;;;;;;;;;6256665;28;20835;-65
2022/04/19 17:29:50;;;;;;;28.42;12.75;;;;;;;;;;6254244;28;20088;-62
2022/04/19 17:32:50;;;;;;;29.58;14.43;;;;;;;;;;6253631;28;20529;-62
2022/04/19 17:35:52;;;;;;;37.47;16.23;;;;;;;;;;6254247;28;20076;-64
2022/04/19 17:38:53;;;;;;;41.25;17.13;;;;;;;;;;6246341;28;20110;-61
2022/04/19 17:41:55;;;;;;;40.92;16.98;;;;;;;;;;6249880;28;20084;-64
2022/04/19 17:44:56;;;;;;;36.85;16.15;;;;;;;;;;6252605;28;20606;-62
2022/04/19 17:47:57;;;;;;;35.10;16.10;;;;;;;;;;6253428;28;20082;-63
2022/04/19 17:57:36;;;;;;;46.58;18.10;;;;;;;;;;6257608;28;20054;-64
2022/04/19 18:00:37;;;;;;;91.30;26.40;;;;;;;;;;6254053;28;20045;-64
2022/04/19 18:03:37;;;;;;;162.20;39.13;;;;;;;;;;6253916;28;20045;-68
2022/04/19 18:06:38;;;;;;;186.82;42.35;;;;;;;;;;6253538;28;20036;-63
2022/04/19 18:09:39;;;;;;;149.85;38.65;;;;;;;;;;6250885;28;21357;-67
2022/04/19 18:12:40;;;;;;;110.55;31.13;;;;;;;;;;6252200;28;20111;-69
2022/04/19 18:15:40;;;;;;;88.78;26.48;;;;;;;;;;6249769;28;20105;-69
2022/04/19 18:18:42;;;;;;;76.95;24.60;;;;;;;;;;6247686;28;20051;-67
2022/04/19 18:25:09;;;;;;;76.95;27.42;;;;;;;;;;6246400;28;20148;-67
2022/04/19 18:28:09;;;;;;;75.82;24.48;;;;;;;;;;6248545;28;20055;-61
2022/04/19 18:31:12;;;;;;;67.35;23.48;;;;;;;;;;6252799;28;20049;-68
2022/04/19 18:34:15;;;;;;;79.55;26.58;;;;;;;;;;6250320;28;20156;-62
2022/04/19 18:37:16;;;;;;;76.78;24.13;;;;;;;;;;6250937;28;20049;-65
2022/04/19 18:40:19;;;;;;;69.68;24.15;;;;;;;;;;6247312;28;20510;-66
2022/04/19 18:43:20;;;;;;;71.23;24.10;;;;;;;;;;6249064;28;20099;-64
2022/04/19 18:46:20;;;;;;;76.95;26.55;;;;;;;;;;6246281;28;20055;-65
2022/04/19 18:49:21;;;;;;;80.75;26.92;;;;;;;;;;6248488;28;20049;-67